sensor_id;sensor_type;location;lat;lon;timestamp;temperature;humidity
14401;DHT22;7285;50.894;5.462;2023-04-06T00:00:24;1.20;1.00
14401;DHT22;7285;50.894;5.462;2023-04-06T00:02:51;1.20;99.90
14401;DHT22;7285;50.894;5.462;2023-04-06T00:05:19;1.30;99.90
14401;DHT22;7285;50.894;5.462;2023-04-06T00:07:46;1.30;99.90
14401;DHT22;7285;50.894;5.462;2023-04-06T00:10:15;1.30;99.90
14401;DHT22;7285;50.894;5.462;2023-04-06T00:12:43;1.30;89.00
14401;DHT22;7285;50.894;5.462;2023-04-06T00:15:10;1.30;33.00
14401;DHT22;7285;50.894;5.462;2023-04-06T00:17:37;1.30;1.00
14401;DHT22;7285;50.894;5.462;2023-04-06T00:20:05;1.40;36.50
14401;DHT22;7285;50.894;5.462;2023-04-06T00:22:33;1.30;61.40
14401;DHT22;7285;50.894;5.462;2023-04-06T00:25:01;1.30;99.90
14401;DHT22;7285;50.894;5.462;2023-04-06T00:27:29;1.30;1.00
14401;DHT22;7285;50.894;5.462;2023-04-06T00:29:56;1.20;1.00
14401;DHT22;7285;50.894;5.462;2023-04-06T00:32:23;1.10;1.00
14401;DHT22;7285;50.894;5.462;2023-04-06T00:34:50;1.00;1.00
14401;DHT22;7285;50.894;5.462;2023-04-06T00:37:17;1.10;99.90
14401;DHT22;7285;50.894;5.462;2023-04-06T00:39:44;1.00;99.90
14401;DHT22;7285;50.894;5.462;2023-04-06T00:42:12;1.10;1.00
14401;DHT22;7285;50.894;5.462;2023-04-06T00:44:41;1.10;1.00
14401;DHT22;7285;50.894;5.462;2023-04-06T00:47:08;1.00;1.00
14401;DHT22;7285;50.894;5.462;2023-04-06T00:49:36;1.00;1.00
14401;DHT22;7285;50.894;5.462;2023-04-06T00:52:03;1.00;1.00
14401;DHT22;7285;50.894;5.462;2023-04-06T00:54:30;1.00;1.00
14401;DHT22;7285;50.894;5.462;2023-04-06T00:56:57;0.90;1.00
14401;DHT22;7285;50.894;5.462;2023-04-06T00:59:24;0.90;1.00
14401;DHT22;7285;50.894;5.462;2023-04-06T01:01:53;0.90;1.00
14401;DHT22;7285;50.894;5.462;2023-04-06T01:04:20;0.90;1.00
14401;DHT22;7285;50.894;5.462;2023-04-06T01:06:48;0.90;1.00
14401;DHT22;7285;50.894;5.462;2023-04-06T01:09:16;0.80;99.90
14401;DHT22;7285;50.894;5.462;2023-04-06T01:11:43;0.70;99.90
14401;DHT22;7285;50.894;5.462;2023-04-06T01:14:10;0.70;1.00
14401;DHT22;7285;50.894;5.462;2023-04-06T01:16:37;0.70;1.00
14401;DHT22;7285;50.894;5.462;2023-04-06T01:19:09;0.60;1.00
14401;DHT22;7285;50.894;5.462;2023-04-06T01:21:36;0.60;1.00
14401;DHT22;7285;50.894;5.462;2023-04-06T01:24:06;0.60;1.00
14401;DHT22;7285;50.894;5.462;2023-04-06T01:26:34;0.60;1.00
14401;DHT22;7285;50.894;5.462;2023-04-06T01:29:02;0.50;1.00
14401;DHT22;7285;50.894;5.462;2023-04-06T01:31:30;0.60;1.00
14401;DHT22;7285;50.894;5.462;2023-04-06T01:33:57;0.60;1.00
14401;DHT22;7285;50.894;5.462;2023-04-06T01:36:24;0.50;1.00
14401;DHT22;7285;50.894;5.462;2023-04-06T01:38:51;0.50;1.00
14401;DHT22;7285;50.894;5.462;2023-04-06T01:41:20;0.50;1.00
14401;DHT22;7285;50.894;5.462;2023-04-06T01:43:47;0.40;1.00
14401;DHT22;7285;50.894;5.462;2023-04-06T01:46:15;0.40;1.00
14401;DHT22;7285;50.894;5.462;2023-04-06T01:48:42;0.40;1.00
14401;DHT22;7285;50.894;5.462;2023-04-06T01:51:09;0.40;1.00
14401;DHT22;7285;50.894;5.462;2023-04-06T01:53:36;0.40;1.00
14401;DHT22;7285;50.894;5.462;2023-04-06T01:56:03;0.30;1.00
14401;DHT22;7285;50.894;5.462;2023-04-06T01:58:32;0.30;1.00
14401;DHT22;7285;50.894;5.462;2023-04-06T02:00:59;0.30;1.00
14401;DHT22;7285;50.894;5.462;2023-04-06T02:03:26;0.30;1.00
14401;DHT22;7285;50.894;5.462;2023-04-06T02:05:53;0.30;99.90
14401;DHT22;7285;50.894;5.462;2023-04-06T02:08:20;0.30;1.00
14401;DHT22;7285;50.894;5.462;2023-04-06T02:10:47;0.30;21.40
14401;DHT22;7285;50.894;5.462;2023-04-06T02:13:14;0.20;99.90
14401;DHT22;7285;50.894;5.462;2023-04-06T02:15:42;0.20;99.90
14401;DHT22;7285;50.894;5.462;2023-04-06T02:18:09;0.30;99.90
14401;DHT22;7285;50.894;5.462;2023-04-06T02:20:36;0.30;1.00
14401;DHT22;7285;50.894;5.462;2023-04-06T02:23:03;0.40;1.00
14401;DHT22;7285;50.894;5.462;2023-04-06T02:25:30;0.40;1.00
14401;DHT22;7285;50.894;5.462;2023-04-06T02:27:57;0.40;1.00
14401;DHT22;7285;50.894;5.462;2023-04-06T02:30:25;0.40;1.00
14401;DHT22;7285;50.894;5.462;2023-04-06T02:32:53;0.50;1.00
14401;DHT22;7285;50.894;5.462;2023-04-06T02:35:20;0.40;1.00
14401;DHT22;7285;50.894;5.462;2023-04-06T02:37:47;0.50;1.00
14401;DHT22;7285;50.894;5.462;2023-04-06T02:40:14;0.50;1.00
14401;DHT22;7285;50.894;5.462;2023-04-06T02:42:41;0.60;1.00
14401;DHT22;7285;50.894;5.462;2023-04-06T02:45:08;0.60;1.00
14401;DHT22;7285;50.894;5.462;2023-04-06T02:47:35;0.60;99.90
14401;DHT22;7285;50.894;5.462;2023-04-06T02:50:04;0.70;99.90
14401;DHT22;7285;50.894;5.462;2023-04-06T02:52:32;0.80;99.90
14401;DHT22;7285;50.894;5.462;2023-04-06T02:54:59;0.80;99.90
14401;DHT22;7285;50.894;5.462;2023-04-06T02:57:26;0.90;99.90
14401;DHT22;7285;50.894;5.462;2023-04-06T02:59:53;0.90;1.00
14401;DHT22;7285;50.894;5.462;2023-04-06T03:02:20;1.00;1.00
14401;DHT22;7285;50.894;5.462;2023-04-06T03:04:47;1.10;1.00
14401;DHT22;7285;50.894;5.462;2023-04-06T03:07:15;1.20;1.00
14401;DHT22;7285;50.894;5.462;2023-04-06T03:09:42;1.20;99.90
14401;DHT22;7285;50.894;5.462;2023-04-06T03:12:10;1.20;1.00
14401;DHT22;7285;50.894;5.462;2023-04-06T03:14:37;1.30;1.00
14401;DHT22;7285;50.894;5.462;2023-04-06T03:17:04;1.40;1.00
14401;DHT22;7285;50.894;5.462;2023-04-06T03:19:31;1.50;1.00
14401;DHT22;7285;50.894;5.462;2023-04-06T03:21:58;1.50;1.00
14401;DHT22;7285;50.894;5.462;2023-04-06T03:24:26;1.50;1.00
14401;DHT22;7285;50.894;5.462;2023-04-06T03:26:53;1.50;99.90
14401;DHT22;7285;50.894;5.462;2023-04-06T03:29:20;1.50;99.90
14401;DHT22;7285;50.894;5.462;2023-04-06T03:31:47;1.60;99.90
14401;DHT22;7285;50.894;5.462;2023-04-06T03:34:14;1.60;87.90
14401;DHT22;7285;50.894;5.462;2023-04-06T03:36:41;1.70;1.00
14401;DHT22;7285;50.894;5.462;2023-04-06T03:39:08;1.70;1.00
14401;DHT22;7285;50.894;5.462;2023-04-06T03:41:36;1.80;1.00
14401;DHT22;7285;50.894;5.462;2023-04-06T03:44:04;1.90;99.90
14401;DHT22;7285;50.894;5.462;2023-04-06T03:46:31;1.90;99.90
14401;DHT22;7285;50.894;5.462;2023-04-06T03:48:58;2.00;1.00
14401;DHT22;7285;50.894;5.462;2023-04-06T03:51:26;2.00;1.00
14401;DHT22;7285;50.894;5.462;2023-04-06T03:53:53;2.00;1.00
14401;DHT22;7285;50.894;5.462;2023-04-06T03:56:20;2.10;1.00
14401;DHT22;7285;50.894;5.462;2023-04-06T03:58:49;2.10;1.00
14401;DHT22;7285;50.894;5.462;2023-04-06T04:01:16;2.10;1.00
14401;DHT22;7285;50.894;5.462;2023-04-06T04:03:43;2.20;1.00
14401;DHT22;7285;50.894;5.462;2023-04-06T04:06:10;2.20;99.90
14401;DHT22;7285;50.894;5.462;2023-04-06T04:08:37;2.20;99.90
14401;DHT22;7285;50.894;5.462;2023-04-06T04:11:04;2.20;99.90
14401;DHT22;7285;50.894;5.462;2023-04-06T04:13:31;2.20;99.90
14401;DHT22;7285;50.894;5.462;2023-04-06T04:16:00;2.20;99.90
14401;DHT22;7285;50.894;5.462;2023-04-06T04:18:27;2.20;99.90
14401;DHT22;7285;50.894;5.462;2023-04-06T04:20:54;2.20;99.90
14401;DHT22;7285;50.894;5.462;2023-04-06T04:23:21;2.30;99.90
14401;DHT22;7285;50.894;5.462;2023-04-06T04:25:48;2.30;99.90
14401;DHT22;7285;50.894;5.462;2023-04-06T04:28:16;2.30;99.90
14401;DHT22;7285;50.894;5.462;2023-04-06T04:30:43;2.30;99.90
14401;DHT22;7285;50.894;5.462;2023-04-06T04:33:12;2.30;95.70
14401;DHT22;7285;50.894;5.462;2023-04-06T04:35:39;2.30;99.90
14401;DHT22;7285;50.894;5.462;2023-04-06T04:38:06;2.30;72.40
14401;DHT22;7285;50.894;5.462;2023-04-06T04:40:32;2.30;20.10
14401;DHT22;7285;50.894;5.462;2023-04-06T04:42:59;2.40;28.40
14401;DHT22;7285;50.894;5.462;2023-04-06T04:45:26;2.30;1.00
14401;DHT22;7285;50.894;5.462;2023-04-06T04:47:53;2.30;1.00
14401;DHT22;7285;50.894;5.462;2023-04-06T04:50:22;2.30;30.00
14401;DHT22;7285;50.894;5.462;2023-04-06T04:52:49;2.30;99.90
14401;DHT22;7285;50.894;5.462;2023-04-06T04:55:16;2.40;53.40
14401;DHT22;7285;50.894;5.462;2023-04-06T04:57:44;2.40;40.20
14401;DHT22;7285;50.894;5.462;2023-04-06T05:00:12;2.50;6.80
14401;DHT22;7285;50.894;5.462;2023-04-06T05:02:39;2.50;16.30
14401;DHT22;7285;50.894;5.462;2023-04-06T05:05:07;2.50;1.00
14401;DHT22;7285;50.894;5.462;2023-04-06T05:07:35;2.50;1.00
14401;DHT22;7285;50.894;5.462;2023-04-06T05:10:02;2.60;1.00
14401;DHT22;7285;50.894;5.462;2023-04-06T05:12:30;2.60;1.00
14401;DHT22;7285;50.894;5.462;2023-04-06T05:14:57;2.60;1.00
14401;DHT22;7285;50.894;5.462;2023-04-06T05:17:24;2.60;1.00
14401;DHT22;7285;50.894;5.462;2023-04-06T05:19:51;2.70;1.00
14401;DHT22;7285;50.894;5.462;2023-04-06T05:22:18;2.70;1.00
14401;DHT22;7285;50.894;5.462;2023-04-06T05:24:47;2.70;1.00
14401;DHT22;7285;50.894;5.462;2023-04-06T05:27:14;2.80;1.00
14401;DHT22;7285;50.894;5.462;2023-04-06T05:29:41;2.80;1.00
14401;DHT22;7285;50.894;5.462;2023-04-06T05:32:08;2.80;1.00
14401;DHT22;7285;50.894;5.462;2023-04-06T05:34:36;2.90;1.00
14401;DHT22;7285;50.894;5.462;2023-04-06T05:37:03;2.90;1.00
14401;DHT22;7285;50.894;5.462;2023-04-06T05:39:30;3.00;1.00
14401;DHT22;7285;50.894;5.462;2023-04-06T05:42:01;3.00;1.00
14401;DHT22;7285;50.894;5.462;2023-04-06T05:44:28;3.10;1.00
14401;DHT22;7285;50.894;5.462;2023-04-06T05:46:55;3.10;1.00
14401;DHT22;7285;50.894;5.462;2023-04-06T05:49:22;3.20;1.00
14401;DHT22;7285;50.894;5.462;2023-04-06T05:51:49;3.20;1.00
14401;DHT22;7285;50.894;5.462;2023-04-06T05:54:16;3.30;1.00
14401;DHT22;7285;50.894;5.462;2023-04-06T05:56:43;3.40;1.00
14401;DHT22;7285;50.894;5.462;2023-04-06T05:59:12;3.40;1.00
14401;DHT22;7285;50.894;5.462;2023-04-06T06:01:39;3.50;1.00
14401;DHT22;7285;50.894;5.462;2023-04-06T06:04:06;3.60;1.00
14401;DHT22;7285;50.894;5.462;2023-04-06T06:06:33;3.70;99.90
14401;DHT22;7285;50.894;5.462;2023-04-06T06:09:00;3.70;99.90
14401;DHT22;7285;50.894;5.462;2023-04-06T06:11:29;3.80;99.90
14401;DHT22;7285;50.894;5.462;2023-04-06T06:13:56;3.90;99.90
14401;DHT22;7285;50.894;5.462;2023-04-06T06:16:25;4.00;99.90
14401;DHT22;7285;50.894;5.462;2023-04-06T06:18:52;4.00;99.90
14401;DHT22;7285;50.894;5.462;2023-04-06T06:21:19;4.10;99.90
14401;DHT22;7285;50.894;5.462;2023-04-06T06:23:46;4.20;99.90
14401;DHT22;7285;50.894;5.462;2023-04-06T06:26:14;4.30;99.90
14401;DHT22;7285;50.894;5.462;2023-04-06T06:28:42;4.40;99.90
14401;DHT22;7285;50.894;5.462;2023-04-06T06:31:09;4.40;99.90
14401;DHT22;7285;50.894;5.462;2023-04-06T06:33:37;4.40;99.90
14401;DHT22;7285;50.894;5.462;2023-04-06T06:36:04;4.50;99.90
14401;DHT22;7285;50.894;5.462;2023-04-06T06:38:31;4.50;99.90
14401;DHT22;7285;50.894;5.462;2023-04-06T06:40:58;4.60;99.90
14401;DHT22;7285;50.894;5.462;2023-04-06T06:43:25;4.70;99.90
14401;DHT22;7285;50.894;5.462;2023-04-06T06:45:52;4.80;99.90
14401;DHT22;7285;50.894;5.462;2023-04-06T06:48:19;4.90;99.90
14401;DHT22;7285;50.894;5.462;2023-04-06T06:50:48;5.00;99.90
14401;DHT22;7285;50.894;5.462;2023-04-06T06:53:15;5.10;59.50
14401;DHT22;7285;50.894;5.462;2023-04-06T06:55:43;5.20;10.10
14401;DHT22;7285;50.894;5.462;2023-04-06T06:58:10;5.30;11.50
14401;DHT22;7285;50.894;5.462;2023-04-06T07:00:37;5.50;1.00
14401;DHT22;7285;50.894;5.462;2023-04-06T07:03:05;5.60;1.00
14401;DHT22;7285;50.894;5.462;2023-04-06T07:05:32;5.80;1.00
14401;DHT22;7285;50.894;5.462;2023-04-06T07:08:00;5.90;1.00
14401;DHT22;7285;50.894;5.462;2023-04-06T07:10:27;6.00;1.00
14401;DHT22;7285;50.894;5.462;2023-04-06T07:12:54;6.20;1.00
14401;DHT22;7285;50.894;5.462;2023-04-06T07:15:22;6.30;1.00
14401;DHT22;7285;50.894;5.462;2023-04-06T07:17:49;6.50;1.00
14401;DHT22;7285;50.894;5.462;2023-04-06T07:20:16;6.60;1.00
14401;DHT22;7285;50.894;5.462;2023-04-06T07:22:43;6.70;1.00
14401;DHT22;7285;50.894;5.462;2023-04-06T07:25:12;6.70;1.00
14401;DHT22;7285;50.894;5.462;2023-04-06T07:27:39;6.80;1.00
14401;DHT22;7285;50.894;5.462;2023-04-06T07:30:07;6.90;1.00
14401;DHT22;7285;50.894;5.462;2023-04-06T07:32:34;7.00;1.00
14401;DHT22;7285;50.894;5.462;2023-04-06T07:35:02;7.20;1.00
14401;DHT22;7285;50.894;5.462;2023-04-06T07:37:29;7.30;1.00
14401;DHT22;7285;50.894;5.462;2023-04-06T07:39:56;7.40;1.00
14401;DHT22;7285;50.894;5.462;2023-04-06T07:42:24;7.60;1.00
14401;DHT22;7285;50.894;5.462;2023-04-06T07:44:51;7.80;1.00
14401;DHT22;7285;50.894;5.462;2023-04-06T07:47:18;8.00;1.00
14401;DHT22;7285;50.894;5.462;2023-04-06T07:49:45;8.10;99.90
14401;DHT22;7285;50.894;5.462;2023-04-06T07:52:12;8.10;99.90
14401;DHT22;7285;50.894;5.462;2023-04-06T07:54:40;8.20;99.90
14401;DHT22;7285;50.894;5.462;2023-04-06T07:57:07;8.30;99.90
14401;DHT22;7285;50.894;5.462;2023-04-06T07:59:36;8.40;99.90
14401;DHT22;7285;50.894;5.462;2023-04-06T08:02:03;8.40;99.90
14401;DHT22;7285;50.894;5.462;2023-04-06T08:04:30;8.50;99.90
14401;DHT22;7285;50.894;5.462;2023-04-06T08:06:57;8.50;99.90
14401;DHT22;7285;50.894;5.462;2023-04-06T08:09:25;8.60;99.90
14401;DHT22;7285;50.894;5.462;2023-04-06T08:11:52;8.60;99.90
14401;DHT22;7285;50.894;5.462;2023-04-06T08:14:19;8.60;99.90
14401;DHT22;7285;50.894;5.462;2023-04-06T08:16:48;8.70;99.90
14401;DHT22;7285;50.894;5.462;2023-04-06T08:19:15;8.60;99.90
14401;DHT22;7285;50.894;5.462;2023-04-06T08:21:43;8.60;99.90
14401;DHT22;7285;50.894;5.462;2023-04-06T08:24:10;8.70;99.90
14401;DHT22;7285;50.894;5.462;2023-04-06T08:26:37;8.80;99.90
14401;DHT22;7285;50.894;5.462;2023-04-06T08:29:04;8.80;99.90
14401;DHT22;7285;50.894;5.462;2023-04-06T08:31:33;8.90;99.90
14401;DHT22;7285;50.894;5.462;2023-04-06T08:34:02;8.90;99.90
14401;DHT22;7285;50.894;5.462;2023-04-06T08:36:30;9.00;99.90
14401;DHT22;7285;50.894;5.462;2023-04-06T08:38:57;9.10;99.90
14401;DHT22;7285;50.894;5.462;2023-04-06T08:41:24;9.30;99.90
14401;DHT22;7285;50.894;5.462;2023-04-06T08:43:56;9.40;99.90
14401;DHT22;7285;50.894;5.462;2023-04-06T08:46:24;9.40;99.90
14401;DHT22;7285;50.894;5.462;2023-04-06T08:48:55;9.50;99.90
14401;DHT22;7285;50.894;5.462;2023-04-06T08:51:25;9.60;99.90
14401;DHT22;7285;50.894;5.462;2023-04-06T08:53:53;9.70;99.90
14401;DHT22;7285;50.894;5.462;2023-04-06T08:56:21;9.80;99.90
14401;DHT22;7285;50.894;5.462;2023-04-06T08:58:49;9.90;99.90
14401;DHT22;7285;50.894;5.462;2023-04-06T09:01:20;9.90;99.90
14401;DHT22;7285;50.894;5.462;2023-04-06T09:03:49;10.00;99.90
14401;DHT22;7285;50.894;5.462;2023-04-06T09:06:17;10.00;99.90
14401;DHT22;7285;50.894;5.462;2023-04-06T09:08:45;10.00;99.90
14401;DHT22;7285;50.894;5.462;2023-04-06T09:11:13;10.10;99.90
14401;DHT22;7285;50.894;5.462;2023-04-06T09:13:47;10.20;99.90
14401;DHT22;7285;50.894;5.462;2023-04-06T09:16:15;10.30;99.90
14401;DHT22;7285;50.894;5.462;2023-04-06T09:18:42;10.40;92.00
14401;DHT22;7285;50.894;5.462;2023-04-06T09:21:10;10.40;90.60
14401;DHT22;7285;50.894;5.462;2023-04-06T09:23:38;10.40;91.20
14401;DHT22;7285;50.894;5.462;2023-04-06T09:26:11;10.50;6.60
14401;DHT22;7285;50.894;5.462;2023-04-06T09:28:45;10.40;1.00
14401;DHT22;7285;50.894;5.462;2023-04-06T09:31:13;10.30;1.00
14401;DHT22;7285;50.894;5.462;2023-04-06T09:33:41;10.20;9.00
14401;DHT22;7285;50.894;5.462;2023-04-06T09:36:09;10.30;3.80
14401;DHT22;7285;50.894;5.462;2023-04-06T09:38:51;10.20;1.00
14401;DHT22;7285;50.894;5.462;2023-04-06T09:41:23;10.20;1.00
14401;DHT22;7285;50.894;5.462;2023-04-06T09:43:51;10.10;1.00
14401;DHT22;7285;50.894;5.462;2023-04-06T09:46:21;10.10;1.00
14401;DHT22;7285;50.894;5.462;2023-04-06T09:48:49;10.10;12.60
14401;DHT22;7285;50.894;5.462;2023-04-06T09:51:18;10.10;2.10
14401;DHT22;7285;50.894;5.462;2023-04-06T09:53:49;10.20;26.20
14401;DHT22;7285;50.894;5.462;2023-04-06T09:56:23;10.20;57.60
14401;DHT22;7285;50.894;5.462;2023-04-06T09:58:56;10.20;99.90
14401;DHT22;7285;50.894;5.462;2023-04-06T10:01:26;10.10;98.80
14401;DHT22;7285;50.894;5.462;2023-04-06T10:03:59;10.00;99.90
14401;DHT22;7285;50.894;5.462;2023-04-06T10:06:32;10.00;99.90
14401;DHT22;7285;50.894;5.462;2023-04-06T10:09:02;9.80;99.90
14401;DHT22;7285;50.894;5.462;2023-04-06T10:11:32;9.80;99.90
14401;DHT22;7285;50.894;5.462;2023-04-06T10:14:00;9.70;99.90
14401;DHT22;7285;50.894;5.462;2023-04-06T10:16:28;9.60;99.90
14401;DHT22;7285;50.894;5.462;2023-04-06T10:19:04;9.70;99.90
14401;DHT22;7285;50.894;5.462;2023-04-06T10:21:34;9.70;99.90
14401;DHT22;7285;50.894;5.462;2023-04-06T10:24:06;9.70;99.90
14401;DHT22;7285;50.894;5.462;2023-04-06T10:26:36;9.80;99.90
14401;DHT22;7285;50.894;5.462;2023-04-06T10:29:04;9.80;99.90
14401;DHT22;7285;50.894;5.462;2023-04-06T10:31:32;9.80;1.00
14401;DHT22;7285;50.894;5.462;2023-04-06T10:34:01;9.80;1.00
14401;DHT22;7285;50.894;5.462;2023-04-06T10:36:31;9.80;1.00
14401;DHT22;7285;50.894;5.462;2023-04-06T10:39:00;9.50;1.00
14401;DHT22;7285;50.894;5.462;2023-04-06T10:41:36;9.40;1.00
14401;DHT22;7285;50.894;5.462;2023-04-06T10:44:03;9.40;23.90
14401;DHT22;7285;50.894;5.462;2023-04-06T10:46:32;9.30;97.30
14401;DHT22;7285;50.894;5.462;2023-04-06T10:49:10;9.30;99.90
14401;DHT22;7285;50.894;5.462;2023-04-06T10:51:38;9.30;1.00
14401;DHT22;7285;50.894;5.462;2023-04-06T10:54:06;9.10;99.90
14401;DHT22;7285;50.894;5.462;2023-04-06T10:56:38;9.10;1.00
14401;DHT22;7285;50.894;5.462;2023-04-06T10:59:06;9.00;1.00
14401;DHT22;7285;50.894;5.462;2023-04-06T11:01:33;9.10;1.00
14401;DHT22;7285;50.894;5.462;2023-04-06T11:04:00;9.00;1.00
14401;DHT22;7285;50.894;5.462;2023-04-06T11:06:28;9.00;1.00
14401;DHT22;7285;50.894;5.462;2023-04-06T11:08:57;8.90;1.00
14401;DHT22;7285;50.894;5.462;2023-04-06T11:11:25;8.90;1.00
14401;DHT22;7285;50.894;5.462;2023-04-06T11:13:55;8.90;99.90
14401;DHT22;7285;50.894;5.462;2023-04-06T11:16:24;9.00;1.00
14401;DHT22;7285;50.894;5.462;2023-04-06T11:18:53;9.00;99.90
14401;DHT22;7285;50.894;5.462;2023-04-06T11:21:34;8.90;99.90
14401;DHT22;7285;50.894;5.462;2023-04-06T11:24:09;9.00;99.90
14401;DHT22;7285;50.894;5.462;2023-04-06T11:26:40;9.00;99.90
14401;DHT22;7285;50.894;5.462;2023-04-06T11:29:09;9.00;99.90
14401;DHT22;7285;50.894;5.462;2023-04-06T11:31:40;8.90;1.00
14401;DHT22;7285;50.894;5.462;2023-04-06T11:34:12;8.80;1.00
14401;DHT22;7285;50.894;5.462;2023-04-06T11:36:43;8.80;1.00
14401;DHT22;7285;50.894;5.462;2023-04-06T11:39:10;8.80;1.00
14401;DHT22;7285;50.894;5.462;2023-04-06T11:41:37;8.80;99.90
14401;DHT22;7285;50.894;5.462;2023-04-06T11:44:05;8.80;99.90
14401;DHT22;7285;50.894;5.462;2023-04-06T11:46:34;8.70;99.90
14401;DHT22;7285;50.894;5.462;2023-04-06T11:49:02;8.80;1.00
14401;DHT22;7285;50.894;5.462;2023-04-06T11:51:29;8.80;99.90
14401;DHT22;7285;50.894;5.462;2023-04-06T11:53:56;8.90;79.60
14401;DHT22;7285;50.894;5.462;2023-04-06T11:56:28;8.90;1.00
14401;DHT22;7285;50.894;5.462;2023-04-06T11:58:55;9.00;99.90
14401;DHT22;7285;50.894;5.462;2023-04-06T12:01:23;8.90;1.00
14401;DHT22;7285;50.894;5.462;2023-04-06T12:03:52;8.90;1.00
14401;DHT22;7285;50.894;5.462;2023-04-06T12:06:19;8.80;99.90
14401;DHT22;7285;50.894;5.462;2023-04-06T12:08:46;8.80;99.90
14401;DHT22;7285;50.894;5.462;2023-04-06T12:11:13;8.80;1.00
14401;DHT22;7285;50.894;5.462;2023-04-06T12:13:40;8.70;99.90
14401;DHT22;7285;50.894;5.462;2023-04-06T12:16:07;8.70;54.30
14401;DHT22;7285;50.894;5.462;2023-04-06T12:18:34;8.60;99.90
14401;DHT22;7285;50.894;5.462;2023-04-06T12:21:03;8.70;1.00
14401;DHT22;7285;50.894;5.462;2023-04-06T12:23:31;8.70;1.00
14401;DHT22;7285;50.894;5.462;2023-04-06T12:25:58;8.70;99.90
14401;DHT22;7285;50.894;5.462;2023-04-06T12:28:25;8.70;99.90
14401;DHT22;7285;50.894;5.462;2023-04-06T12:30:52;8.70;1.00
14401;DHT22;7285;50.894;5.462;2023-04-06T12:33:20;8.60;99.90
14401;DHT22;7285;50.894;5.462;2023-04-06T12:35:47;8.70;1.00
14401;DHT22;7285;50.894;5.462;2023-04-06T12:38:16;8.60;1.00
14401;DHT22;7285;50.894;5.462;2023-04-06T12:40:43;8.70;1.00
14401;DHT22;7285;50.894;5.462;2023-04-06T12:43:10;8.60;1.00
14401;DHT22;7285;50.894;5.462;2023-04-06T12:45:39;8.70;99.90
14401;DHT22;7285;50.894;5.462;2023-04-06T12:48:06;8.60;57.10
14401;DHT22;7285;50.894;5.462;2023-04-06T12:50:33;8.60;99.90
14401;DHT22;7285;50.894;5.462;2023-04-06T12:53:00;8.60;99.90
14401;DHT22;7285;50.894;5.462;2023-04-06T12:55:30;8.60;99.90
14401;DHT22;7285;50.894;5.462;2023-04-06T12:57:59;8.60;28.30
14401;DHT22;7285;50.894;5.462;2023-04-06T13:00:27;8.60;1.00
14401;DHT22;7285;50.894;5.462;2023-04-06T13:02:54;8.60;1.00
14401;DHT22;7285;50.894;5.462;2023-04-06T13:05:21;8.60;1.00
14401;DHT22;7285;50.894;5.462;2023-04-06T13:07:48;8.60;99.90
14401;DHT22;7285;50.894;5.462;2023-04-06T13:10:15;8.60;99.90
14401;DHT22;7285;50.894;5.462;2023-04-06T13:12:43;8.60;25.40
14401;DHT22;7285;50.894;5.462;2023-04-06T13:15:11;8.60;99.90
14401;DHT22;7285;50.894;5.462;2023-04-06T13:17:38;8.60;99.90
14401;DHT22;7285;50.894;5.462;2023-04-06T13:20:06;8.60;1.00
14401;DHT22;7285;50.894;5.462;2023-04-06T13:22:33;8.60;99.90
14401;DHT22;7285;50.894;5.462;2023-04-06T13:25:00;8.60;99.90
14401;DHT22;7285;50.894;5.462;2023-04-06T13:27:27;8.50;1.00
14401;DHT22;7285;50.894;5.462;2023-04-06T13:29:56;8.60;1.00
14401;DHT22;7285;50.894;5.462;2023-04-06T13:32:23;8.70;1.00
14401;DHT22;7285;50.894;5.462;2023-04-06T13:34:50;8.80;1.00
14401;DHT22;7285;50.894;5.462;2023-04-06T13:37:18;8.90;1.00
14401;DHT22;7285;50.894;5.462;2023-04-06T13:39:45;8.90;1.00
14401;DHT22;7285;50.894;5.462;2023-04-06T13:42:12;9.00;99.90
14401;DHT22;7285;50.894;5.462;2023-04-06T13:44:39;9.00;1.00
14401;DHT22;7285;50.894;5.462;2023-04-06T13:47:08;9.10;99.90
14401;DHT22;7285;50.894;5.462;2023-04-06T13:49:35;9.00;1.00
14401;DHT22;7285;50.894;5.462;2023-04-06T13:52:02;9.00;1.00
14401;DHT22;7285;50.894;5.462;2023-04-06T13:54:29;9.10;1.00
14401;DHT22;7285;50.894;5.462;2023-04-06T13:56:56;9.10;99.90
14401;DHT22;7285;50.894;5.462;2023-04-06T13:59:23;9.10;1.00
14401;DHT22;7285;50.894;5.462;2023-04-06T14:01:50;9.00;99.90
14401;DHT22;7285;50.894;5.462;2023-04-06T14:04:18;9.10;1.00
14401;DHT22;7285;50.894;5.462;2023-04-06T14:06:45;9.10;1.00
14401;DHT22;7285;50.894;5.462;2023-04-06T14:09:13;9.10;99.90
14401;DHT22;7285;50.894;5.462;2023-04-06T14:11:40;9.10;99.90
14401;DHT22;7285;50.894;5.462;2023-04-06T14:14:06;9.00;99.90
14401;DHT22;7285;50.894;5.462;2023-04-06T14:16:33;9.00;1.00
14401;DHT22;7285;50.894;5.462;2023-04-06T14:19:00;9.00;99.90
14401;DHT22;7285;50.894;5.462;2023-04-06T14:21:29;9.00;1.00
14401;DHT22;7285;50.894;5.462;2023-04-06T14:23:56;8.90;99.90
14401;DHT22;7285;50.894;5.462;2023-04-06T14:26:23;8.70;1.00
14401;DHT22;7285;50.894;5.462;2023-04-06T14:28:50;8.70;1.00
14401;DHT22;7285;50.894;5.462;2023-04-06T14:31:18;8.70;1.00
14401;DHT22;7285;50.894;5.462;2023-04-06T14:33:45;8.80;1.00
14401;DHT22;7285;50.894;5.462;2023-04-06T14:36:12;8.90;1.00
14401;DHT22;7285;50.894;5.462;2023-04-06T14:38:40;9.00;1.00
14401;DHT22;7285;50.894;5.462;2023-04-06T14:41:15;9.10;99.90
14401;DHT22;7285;50.894;5.462;2023-04-06T14:43:42;9.30;99.90
14401;DHT22;7285;50.894;5.462;2023-04-06T14:46:08;9.20;1.00
14401;DHT22;7285;50.894;5.462;2023-04-06T14:48:35;9.10;1.00
14401;DHT22;7285;50.894;5.462;2023-04-06T14:51:02;9.20;1.00
14401;DHT22;7285;50.894;5.462;2023-04-06T14:53:29;9.10;1.00
14401;DHT22;7285;50.894;5.462;2023-04-06T14:55:58;9.00;1.00
14401;DHT22;7285;50.894;5.462;2023-04-06T14:58:26;9.00;1.00
14401;DHT22;7285;50.894;5.462;2023-04-06T15:00:55;8.90;1.00
14401;DHT22;7285;50.894;5.462;2023-04-06T15:03:24;8.70;1.00
14401;DHT22;7285;50.894;5.462;2023-04-06T15:05:51;8.80;1.00
14401;DHT22;7285;50.894;5.462;2023-04-06T15:08:18;8.70;1.00
14401;DHT22;7285;50.894;5.462;2023-04-06T15:10:46;8.60;99.90
14401;DHT22;7285;50.894;5.462;2023-04-06T15:13:15;8.50;1.00
14401;DHT22;7285;50.894;5.462;2023-04-06T15:15:42;8.50;99.90
14401;DHT22;7285;50.894;5.462;2023-04-06T15:18:09;8.50;1.00
14401;DHT22;7285;50.894;5.462;2023-04-06T15:20:36;8.40;1.00
14401;DHT22;7285;50.894;5.462;2023-04-06T15:23:04;8.40;1.00
14401;DHT22;7285;50.894;5.462;2023-04-06T15:25:31;8.50;1.00
14401;DHT22;7285;50.894;5.462;2023-04-06T15:27:58;8.40;1.00
14401;DHT22;7285;50.894;5.462;2023-04-06T15:30:26;8.30;1.00
14401;DHT22;7285;50.894;5.462;2023-04-06T15:32:55;8.30;1.00
14401;DHT22;7285;50.894;5.462;2023-04-06T15:35:23;8.30;1.00
14401;DHT22;7285;50.894;5.462;2023-04-06T15:37:51;8.40;1.00
14401;DHT22;7285;50.894;5.462;2023-04-06T15:40:18;8.30;1.00
14401;DHT22;7285;50.894;5.462;2023-04-06T15:42:45;8.30;1.00
14401;DHT22;7285;50.894;5.462;2023-04-06T15:45:12;8.30;46.50
14401;DHT22;7285;50.894;5.462;2023-04-06T15:47:41;8.30;99.90
14401;DHT22;7285;50.894;5.462;2023-04-06T15:50:09;8.30;99.90
14401;DHT22;7285;50.894;5.462;2023-04-06T15:52:37;8.30;99.90
14401;DHT22;7285;50.894;5.462;2023-04-06T15:55:06;8.30;99.90
14401;DHT22;7285;50.894;5.462;2023-04-06T15:57:33;8.20;99.90
14401;DHT22;7285;50.894;5.462;2023-04-06T16:00:00;8.20;99.90
14401;DHT22;7285;50.894;5.462;2023-04-06T16:02:27;8.20;99.90
14401;DHT22;7285;50.894;5.462;2023-04-06T16:04:56;8.20;1.00
14401;DHT22;7285;50.894;5.462;2023-04-06T16:07:25;8.10;1.00
14401;DHT22;7285;50.894;5.462;2023-04-06T16:09:52;8.10;1.00
14401;DHT22;7285;50.894;5.462;2023-04-06T16:12:20;8.00;1.00